Time;durP1;ratioP1;P1;durP2;ratioP2;P2;SDS_P1;SDS_P2;PMS_P1;PMS_P2;Temp;Humidity;BMP_temperature;BMP_pressure;BME280_temperature;BME280_humidity;BME280_pressure;Samples;Min_cycle;Max_cycle;Signal;HPM_P1;HPM_P2
2021/01/27 00:00:30;;;;;;;9.50;4.07;;;15.80;59.00;;;;;;5089027;28;20028;-59
2021/01/27 00:02:56;;;;;;;8.38;3.63;;;15.70;58.70;;;;;;5090242;28;20020;-60
2021/01/27 00:05:29;;;;;;;7.47;3.63;;;15.70;58.60;;;;;;5093134;28;20023;-62
2021/01/27 00:07:54;;;;;;;7.60;3.38;;;15.70;58.50;;;;;;5094559;28;20115;-61
2021/01/27 00:10:20;;;;;;;6.85;3.72;;;15.80;58.60;;;;;;5093231;28;20181;-59
2021/01/27 00:12:46;;;;;;;8.65;3.50;;;15.70;58.20;;;;;;5094395;28;20031;-59
2021/01/27 00:15:15;;;;;;;8.73;3.50;;;15.70;58.40;;;;;;5094538;28;20017;-60
2021/01/27 00:17:41;;;;;;;7.97;3.47;;;15.70;58.50;;;;;;5094575;28;20020;-60
2021/01/27 00:20:09;;;;;;;8.57;3.92;;;15.70;58.40;;;;;;5092952;28;20401;-59
2021/01/27 00:22:35;;;;;;;7.50;3.92;;;15.70;58.20;;;;;;5094309;28;20024;-60
2021/01/27 00:25:02;;;;;;;7.22;3.35;;;15.60;57.80;;;;;;5094117;28;20103;-59
2021/01/27 00:27:28;;;;;;;7.63;3.10;;;15.60;58.00;;;;;;5094579;28;20059;-59
2021/01/27 00:29:53;;;;;;;6.43;3.65;;;15.60;58.30;;;;;;5075087;28;20059;-59
2021/01/27 00:32:19;;;;;;;8.63;4.00;;;15.60;58.00;;;;;;5072651;28;20112;-62
2021/01/27 00:34:45;;;;;;;9.13;4.07;;;15.70;58.00;;;;;;5073830;28;20024;-59
2021/01/27 00:37:10;;;;;;;8.40;4.43;;;15.60;57.40;;;;;;5073895;28;20028;-59
2021/01/27 00:39:36;;;;;;;6.80;3.80;;;15.50;57.90;;;;;;5073831;28;20052;-59
2021/01/27 00:42:01;;;;;;;8.98;4.20;;;15.50;57.70;;;;;;5072276;28;20108;-61
2021/01/27 00:44:27;;;;;;;7.10;3.80;;;15.50;57.70;;;;;;5073743;28;20024;-59
2021/01/27 00:46:52;;;;;;;7.25;3.50;;;15.50;57.50;;;;;;5073620;28;20096;-61
2021/01/27 00:49:18;;;;;;;7.28;3.70;;;15.50;57.50;;;;;;5071990;28;20115;-59
2021/01/27 00:51:43;;;;;;;8.73;4.65;;;15.50;57.90;;;;;;5073309;28;20017;-58
2021/01/27 00:54:09;;;;;;;7.65;4.25;;;15.50;57.40;;;;;;5073656;28;20099;-61
2021/01/27 00:56:35;;;;;;;7.93;4.32;;;15.50;57.50;;;;;;5073320;28;20081;-60
2021/01/27 00:59:00;;;;;;;7.82;4.43;;;15.50;57.50;;;;;;5077173;28;20100;-59
2021/01/27 01:01:26;;;;;;;7.47;4.65;;;15.40;57.30;;;;;;5091835;28;20039;-62
2021/01/27 01:03:51;;;;;;;8.00;4.18;;;15.50;57.60;;;;;;5093201;28;20474;-61
2021/01/27 01:06:17;;;;;;;8.85;4.68;;;15.40;57.30;;;;;;5093002;28;20024;-58
2021/01/27 01:08:42;;;;;;;9.68;4.20;;;15.50;57.50;;;;;;5090804;28;20024;-62
2021/01/27 01:11:08;;;;;;;7.88;4.13;;;15.50;57.60;;;;;;5092052;28;20020;-60
2021/01/27 01:13:33;;;;;;;8.45;4.45;;;15.40;57.10;;;;;;5093398;28;20020;-61
2021/01/27 01:15:59;;;;;;;11.10;4.35;;;15.40;57.30;;;;;;5091991;28;20413;-60
2021/01/27 01:18:25;;;;;;;11.60;4.53;;;15.40;57.70;;;;;;5093243;28;20024;-61
2021/01/27 01:20:50;;;;;;;7.32;3.58;;;15.40;57.50;;;;;;5093024;28;20117;-61
2021/01/27 01:23:19;;;;;;;7.78;3.97;;;15.40;57.50;;;;;;5093101;28;20062;-59
2021/01/27 01:25:46;;;;;;;8.50;5.00;;;15.40;57.10;;;;;;5091626;28;20036;-62
2021/01/27 01:28:12;;;;;;;9.43;4.32;;;15.30;57.30;;;;;;5093031;28;20028;-60
2021/01/27 01:30:40;;;;;;;8.00;3.85;;;15.40;57.40;;;;;;5093020;28;20094;-60
2021/01/27 01:33:10;;;;;;;9.18;4.32;;;15.40;57.60;;;;;;5092612;28;20110;-60
2021/01/27 01:35:36;;;;;;;8.30;4.32;;;15.40;57.40;;;;;;5092688;28;20028;-60
2021/01/27 01:38:02;;;;;;;8.18;4.55;;;15.40;57.30;;;;;;5092957;28;20088;-59
2021/01/27 01:40:39;;;;;;;8.45;4.07;;;15.40;56.90;;;;;;5092977;28;20035;-60
2021/01/27 01:43:25;;;;;;;7.72;4.47;;;15.30;57.30;;;;;;5091303;28;20027;-59
2021/01/27 01:45:53;;;;;;;6.82;4.03;;;15.30;57.30;;;;;;5092656;28;20060;-56
2021/01/27 01:48:50;;;;;;;8.38;4.97;;;15.30;56.90;;;;;;5092625;28;20671;-59
2021/01/27 01:51:41;;;;;;;7.00;4.18;;;15.30;56.60;;;;;;5092181;28;20069;-59
2021/01/27 01:54:25;;;;;;;9.55;4.75;;;15.30;56.90;;;;;;5092720;28;20020;-59
2021/01/27 01:57:07;;;;;;;7.07;3.92;;;15.40;56.80;;;;;;5092513;28;20095;-58
2021/01/27 01:59:36;;;;;;;7.38;4.35;;;15.30;57.10;;;;;;5092293;28;20517;-58
2021/01/27 02:02:06;;;;;;;8.65;4.53;;;15.30;56.90;;;;;;5090744;28;20115;-59
2021/01/27 02:05:04;;;;;;;8.18;4.68;;;15.20;56.70;;;;;;5092280;28;20393;-59
2021/01/27 02:07:30;;;;;;;9.35;4.53;;;15.20;57.10;;;;;;5092391;28;20063;-59
2021/01/27 02:09:56;;;;;;;9.63;4.05;;;15.20;57.00;;;;;;5092216;28;20063;-59
2021/01/27 02:12:27;;;;;;;6.90;3.97;;;15.20;56.80;;;;;;5092010;28;20051;-59
2021/01/27 02:15:20;;;;;;;6.95;4.50;;;15.20;57.30;;;;;;5092226;28;20038;-60
2021/01/27 02:17:46;;;;;;;8.52;4.28;;;15.20;57.20;;;;;;5092159;28;20500;-59
2021/01/27 02:20:30;;;;;;;8.05;4.40;;;15.20;56.70;;;;;;5090579;28;20028;-59
2021/01/27 02:23:11;;;;;;;8.50;4.68;;;15.20;57.30;;;;;;5091703;28;20020;-58
2021/01/27 02:25:37;;;;;;;;;;;15.20;56.90;;;;;;5092484;28;20458;-60
2021/01/27 02:28:10;;;;;;;8.70;4.53;;;15.20;57.20;;;;;;5087489;28;20422;-61
2021/01/27 02:30:42;;;;;;;7.78;4.13;;;15.20;56.90;;;;;;5070433;28;20025;-58
2021/01/27 02:33:49;;;;;;;9.27;4.20;;;15.20;57.00;;;;;;5071387;28;20024;-59
2021/01/27 02:36:25;;;;;;;8.18;4.10;;;15.20;56.60;;;;;;5071268;28;20020;-61
2021/01/27 02:38:52;;;;;;;10.20;5.43;;;15.20;56.80;;;;;;5071557;28;20559;-58
2021/01/27 02:41:41;;;;;;;8.80;4.65;;;15.20;56.80;;;;;;5071207;28;20397;-59
2021/01/27 02:44:15;;;;;;;9.70;4.30;;;15.20;56.50;;;;;;5071482;28;20033;-62
2021/01/27 02:46:46;;;;;;;7.13;4.28;;;15.10;56.40;;;;;;5071524;28;20039;-59
2021/01/27 02:49:26;;;;;;;8.23;4.30;;;15.10;56.60;;;;;;5071329;28;20028;-58
2021/01/27 02:51:54;;;;;;;8.15;4.47;;;15.10;56.30;;;;;;5071311;28;20051;-59
2021/01/27 02:54:35;;;;;;;9.00;5.03;;;15.10;56.30;;;;;;5069853;28;20020;-60
2021/01/27 02:57:16;;;;;;;8.65;4.63;;;15.10;56.70;;;;;;5069813;28;20031;-60
2021/01/27 02:59:53;;;;;;;9.95;4.32;;;15.10;56.50;;;;;;5080922;28;20064;-60
2021/01/27 03:02:27;;;;;;;7.05;4.05;;;15.10;56.30;;;;;;5090983;28;20523;-59
2021/01/27 03:05:01;;;;;;;7.65;4.30;;;15.10;56.40;;;;;;5090933;28;20031;-60
2021/01/27 03:07:29;;;;;;;8.68;4.00;;;15.10;56.80;;;;;;5089916;28;20166;-58
2021/01/27 03:10:03;;;;;;;8.18;4.63;;;15.10;56.40;;;;;;5091068;28;20385;-59
2021/01/27 03:12:28;;;;;;;7.03;4.30;;;15.10;56.50;;;;;;5090786;28;20515;-62
2021/01/27 03:14:54;;;;;;;8.77;4.82;;;15.00;55.80;;;;;;5091137;28;20054;-59
2021/01/27 03:17:21;;;;;;;6.72;4.20;;;15.00;56.60;;;;;;5091185;28;20358;-59
2021/01/27 03:19:59;;;;;;;10.55;4.70;;;15.00;56.20;;;;;;5090797;28;20035;-60
2021/01/27 03:22:31;;;;;;;8.30;4.60;;;15.00;56.10;;;;;;5090726;28;20028;-61
2021/01/27 03:25:20;;;;;;;7.15;4.18;;;15.00;56.20;;;;;;5091009;28;20024;-57
2021/01/27 03:28:22;;;;;;;7.80;4.55;;;15.00;56.10;;;;;;5090654;28;20088;-59
2021/01/27 03:30:48;;;;;;;9.25;5.00;;;15.00;56.00;;;;;;5069488;28;20055;-61
2021/01/27 03:33:23;;;;;;;7.32;4.22;;;15.00;55.70;;;;;;5069051;28;20029;-59
2021/01/27 03:35:52;;;;;;;7.13;3.80;;;15.00;56.30;;;;;;5070159;28;20024;-62
2021/01/27 03:38:36;;;;;;;7.45;3.92;;;15.00;56.30;;;;;;5070090;28;20510;-59
2021/01/27 03:41:23;;;;;;;7.35;3.72;;;15.00;56.40;;;;;;5070158;28;20050;-58
2021/01/27 03:44:09;;;;;;;10.20;4.53;;;15.00;56.40;;;;;;5070473;28;20036;-62
2021/01/27 03:46:55;;;;;;;7.47;3.92;;;15.00;56.30;;;;;;5070544;28;20484;-59
2021/01/27 03:49:32;;;;;;;9.50;4.63;;;14.90;56.60;;;;;;5070282;28;20021;-60
2021/01/27 03:52:07;;;;;;;7.53;4.22;;;14.90;56.50;;;;;;5070227;28;20470;-59
2021/01/27 03:54:37;;;;;;;7.93;4.03;;;14.90;56.40;;;;;;5070467;28;20024;-60
2021/01/27 03:57:11;;;;;;;7.57;4.30;;;14.90;56.30;;;;;;5068950;28;20025;-61
2021/01/27 03:59:36;;;;;;;7.85;4.40;;;14.90;56.40;;;;;;5077902;28;20024;-59
2021/01/27 04:02:14;;;;;;;6.57;4.07;;;14.90;55.60;;;;;;5080767;28;20028;-61
2021/01/27 04:04:40;;;;;;;7.85;4.20;;;14.90;55.80;;;;;;5074443;28;20115;-59
2021/01/27 04:07:05;;;;;;;6.95;3.63;;;14.90;56.20;;;;;;5070038;28;20147;-61
2021/01/27 04:09:31;;;;;;;7.00;3.90;;;14.80;56.30;;;;;;5068783;28;20040;-60
2021/01/27 04:11:56;;;;;;;7.82;4.18;;;14.80;56.20;;;;;;5069778;28;20021;-61
2021/01/27 04:14:21;;;;;;;8.02;3.80;;;14.80;56.10;;;;;;5068996;28;20013;-59
2021/01/27 04:16:47;;;;;;;7.40;3.80;;;14.80;56.50;;;;;;5069866;28;20131;-59
2021/01/27 04:19:12;;;;;;;7.75;4.15;;;14.80;56.20;;;;;;5068663;28;20036;-60
2021/01/27 04:21:38;;;;;;;7.57;4.22;;;14.80;56.00;;;;;;5069531;28;20225;-58
2021/01/27 04:24:04;;;;;;;7.40;3.67;;;14.80;56.30;;;;;;5070051;28;20043;-58
2021/01/27 04:26:30;;;;;;;6.95;3.95;;;14.80;56.40;;;;;;5052018;28;20089;-58
2021/01/27 04:28:55;;;;;;;6.30;3.35;;;14.80;56.10;;;;;;5070035;28;20033;-61
2021/01/27 04:31:21;;;;;;;6.78;3.53;;;14.90;56.10;;;;;;5069816;28;20035;-58
2021/01/27 04:33:46;;;;;;;7.57;3.90;;;14.70;55.80;;;;;;5080506;28;20545;-59
2021/01/27 04:36:12;;;;;;;5.97;3.60;;;14.80;56.10;;;;;;5090023;28;20028;-59
2021/01/27 04:38:38;;;;;;;6.85;3.83;;;14.80;56.20;;;;;;5089133;28;20437;-58
2021/01/27 04:41:04;;;;;;;5.97;3.53;;;14.80;55.90;;;;;;5090018;28;20073;-60
2021/01/27 04:43:44;;;;;;;6.03;3.10;;;14.70;56.10;;;;;;5090282;28;20398;-61
2021/01/27 04:46:15;;;;;;;6.70;3.42;;;14.80;56.20;;;;;;5090053;28;20477;-60
2021/01/27 04:49:02;;;;;;;6.68;3.53;;;14.90;56.10;;;;;;5090223;28;20505;-58
2021/01/27 04:51:51;;;;;;;10.23;3.83;;;14.80;56.10;;;;;;5092560;28;20032;-57
2021/01/27 04:54:41;;;;;;;6.18;3.38;;;14.80;56.20;;;;;;5094289;28;20032;-58
2021/01/27 04:57:33;;;;;;;6.30;3.20;;;14.80;56.00;;;;;;5092606;28;20103;-59
2021/01/27 05:00:23;;;;;;;6.88;3.33;;;14.80;56.00;;;;;;5092521;28;20032;-60
2021/01/27 05:03:11;;;;;;;4.82;2.67;;;14.80;55.80;;;;;;5098151;28;20161;-59
2021/01/27 05:05:42;;;;;;;5.97;3.20;;;14.70;55.80;;;;;;5097574;28;20039;-59
2021/01/27 05:08:16;;;;;;;6.38;3.28;;;14.70;55.90;;;;;;5096615;28;20024;-59
2021/01/27 05:10:53;;;;;;;5.75;2.97;;;14.70;55.90;;;;;;5094836;28;20074;-61
2021/01/27 05:13:30;;;;;;;5.57;3.00;;;14.70;56.00;;;;;;5092139;28;20032;-59
2021/01/27 05:16:00;;;;;;;6.53;3.40;;;14.70;55.80;;;;;;5092089;28;20031;-59
2021/01/27 05:18:26;;;;;;;5.43;2.72;;;14.70;56.00;;;;;;5093476;28;20027;-60
2021/01/27 05:20:51;;;;;;;6.78;3.13;;;14.70;56.40;;;;;;5090860;28;20385;-58
2021/01/27 05:23:18;;;;;;;6.75;3.13;;;14.60;56.20;;;;;;5089943;28;20027;-62
2021/01/27 05:25:45;;;;;;;5.85;3.00;;;14.60;56.30;;;;;;5092484;28;20476;-60
2021/01/27 05:28:19;;;;;;;7.35;2.90;;;14.60;56.00;;;;;;5091806;28;20461;-63
2021/01/27 05:30:55;;;;;;;6.15;2.80;;;14.60;55.70;;;;;;5091863;28;20020;-59
2021/01/27 05:33:41;;;;;;;6.22;3.47;;;14.60;56.10;;;;;;5083654;28;20032;-61
2021/01/27 05:36:08;;;;;;;6.72;3.20;;;14.50;56.20;;;;;;5071075;28;20021;-63
2021/01/27 05:38:34;;;;;;;7.35;3.30;;;14.50;56.10;;;;;;5071418;28;20020;-59
2021/01/27 05:41:27;;;;;;;6.07;2.55;;;14.50;56.40;;;;;;5072619;28;20595;-61
2021/01/27 05:44:14;;;;;;;5.90;2.80;;;14.50;56.10;;;;;;5070189;28;20440;-60
2021/01/27 05:46:40;;;;;;;6.13;2.78;;;14.50;56.00;;;;;;5071111;28;20027;-60
2021/01/27 05:49:25;;;;;;;5.57;2.65;;;14.40;56.30;;;;;;5071219;28;20031;-57
2021/01/27 05:51:51;;;;;;;5.53;2.88;;;14.50;56.30;;;;;;5072121;28;20021;-61
2021/01/27 05:54:27;;;;;;;5.75;3.00;;;14.40;56.10;;;;;;5071231;28;20024;-59
2021/01/27 05:56:54;;;;;;;5.60;2.90;;;14.40;55.70;;;;;;5072294;28;20032;-59
2021/01/27 05:59:24;;;;;;;6.85;3.05;;;14.40;56.10;;;;;;5071014;28;20127;-59
2021/01/27 06:01:52;;;;;;;4.85;2.53;;;14.40;56.20;;;;;;5071136;28;20468;-61
2021/01/27 06:04:26;;;;;;;5.20;2.83;;;14.40;56.10;;;;;;5085432;28;20120;-59
2021/01/27 06:06:51;;;;;;;5.93;3.15;;;14.40;55.70;;;;;;5092085;28;20103;-56
2021/01/27 06:09:42;;;;;;;7.70;3.28;;;14.50;56.00;;;;;;5092261;28;20107;-61
2021/01/27 06:12:27;;;;;;;12.57;6.18;;;14.40;56.30;;;;;;5091187;28;20432;-58
2021/01/27 06:15:27;;;;;;;9.05;3.85;;;14.40;56.40;;;;;;5091047;28;20024;-60
2021/01/27 06:17:52;;;;;;;13.80;3.75;;;14.30;56.90;;;;;;5088625;28;20035;-60
2021/01/27 06:20:33;;;;;;;10.70;3.45;;;14.40;56.20;;;;;;5091951;28;20039;-60
2021/01/27 06:23:32;;;;;;;13.10;3.60;;;14.50;56.50;;;;;;5091858;28;20020;-60
2021/01/27 06:26:52;;;;;;;9.38;3.30;;;14.60;56.60;;;;;;5092013;28;20121;-57
2021/01/27 06:29:42;;;;;;;10.13;3.35;;;14.80;56.50;;;;;;5069052;28;20028;-60
2021/01/27 06:32:36;;;;;;;13.00;3.25;;;15.00;56.10;;;;;;5090612;28;20062;-60
2021/01/27 06:35:20;;;;;;;16.92;4.32;;;15.10;55.40;;;;;;5076507;28;20012;-62
2021/01/27 06:37:58;;;;;;;12.50;3.88;;;15.00;57.10;;;;;;5080874;28;20082;-66
2021/01/27 06:40:39;;;;;;;12.25;5.53;;;15.00;55.70;;;;;;5068852;28;20667;-59
2021/01/27 06:43:20;;;;;;;15.90;6.47;;;14.90;56.70;;;;;;5070381;28;20085;-61
2021/01/27 06:46:03;;;;;;;17.65;6.95;;;15.00;57.70;;;;;;5064024;28;20035;-61
2021/01/27 06:48:48;;;;;;;14.50;6.10;;;15.00;57.20;;;;;;5073599;28;20028;-60
2021/01/27 06:51:44;;;;;;;18.83;6.25;;;15.10;58.20;;;;;;5076948;28;20031;-61
2021/01/27 06:54:29;;;;;;;13.75;6.35;;;15.20;57.70;;;;;;5087735;28;20024;-61
2021/01/27 06:57:19;;;;;;;16.58;5.93;;;15.20;57.40;;;;;;5072108;28;20024;-61
2021/01/27 07:00:19;;;;;;;19.25;6.07;;;15.20;57.40;;;;;;5076853;28;20060;-64
2021/01/27 07:03:23;;;;;;;14.40;5.78;;;15.20;57.30;;;;;;5078101;28;20032;-62
2021/01/27 07:06:10;;;;;;;12.70;5.10;;;15.10;57.10;;;;;;5075736;28;20031;-60
2021/01/27 07:08:44;;;;;;;12.63;5.50;;;15.10;57.20;;;;;;5071515;28;20552;-60
2021/01/27 07:11:49;;;;;;;11.52;4.93;;;15.10;57.20;;;;;;5087918;28;20039;-64
2021/01/27 07:14:43;;;;;;;10.98;5.20;;;15.00;57.40;;;;;;5088361;28;20091;-62
2021/01/27 07:17:38;;;;;;;12.18;4.55;;;15.00;57.20;;;;;;5085586;28;20028;-63
2021/01/27 07:20:15;;;;;;;10.35;4.80;;;15.00;57.30;;;;;;5070838;28;20068;-60
2021/01/27 07:23:01;;;;;;;10.88;4.35;;;14.90;57.10;;;;;;5090650;28;20515;-62
2021/01/27 07:25:48;;;;;;;9.20;4.00;;;14.90;57.60;;;;;;5088463;28;20034;-61
2021/01/27 07:28:19;;;;;;;11.38;4.53;;;14.90;57.50;;;;;;5082649;28;20030;-63
2021/01/27 07:31:17;;;;;;;9.90;3.88;;;14.90;57.30;;;;;;5080920;28;20020;-60
2021/01/27 07:34:05;;;;;;;9.73;4.18;;;14.90;57.60;;;;;;5079416;28;20045;-62
2021/01/27 07:36:44;;;;;;;9.50;3.90;;;14.80;57.60;;;;;;5080329;28;20037;-60
2021/01/27 07:39:36;;;;;;;7.82;3.40;;;14.80;57.60;;;;;;5073685;28;20148;-61
2021/01/27 07:42:08;;;;;;;8.77;3.40;;;14.70;57.30;;;;;;5069247;28;20700;-60
2021/01/27 07:44:36;;;;;;;11.60;5.53;;;14.70;58.20;;;;;;5070555;28;20496;-64
2021/01/27 07:47:23;;;;;;;28.23;25.35;;;14.80;57.70;;;;;;5085338;28;20097;-65
2021/01/27 07:49:56;;;;;;;16.13;10.60;;;14.80;56.90;;;;;;5080397;28;20039;-64
2021/01/27 07:52:30;;;;;;;13.73;8.07;;;14.80;56.80;;;;;;5082418;28;20032;-60
2021/01/27 07:55:03;;;;;;;10.73;5.85;;;14.80;57.40;;;;;;5090329;28;20025;-61
2021/01/27 07:57:42;;;;;;;9.20;5.05;;;14.70;57.60;;;;;;5087242;28;20484;-62
2021/01/27 08:00:08;;;;;;;11.82;5.03;;;14.80;57.90;;;;;;5074473;28;20048;-61
2021/01/27 08:02:43;;;;;;;11.35;5.28;;;14.90;57.70;;;;;;5072742;28;20074;-60
2021/01/27 08:05:10;;;;;;;8.30;4.45;;;14.90;57.40;;;;;;5080099;28;20115;-65
2021/01/27 08:07:40;;;;;;;7.70;3.90;;;15.00;57.00;;;;;;5085578;28;20508;-61
2021/01/27 08:10:23;;;;;;;10.73;4.25;;;15.00;57.10;;;;;;5066835;28;20033;-61
2021/01/27 08:12:59;;;;;;;8.68;3.40;;;15.10;56.90;;;;;;5089668;28;20034;-62
2021/01/27 08:15:24;;;;;;;8.65;3.67;;;15.10;57.10;;;;;;5084222;28;20020;-59
2021/01/27 08:17:58;;;;;;;8.40;3.83;;;15.20;57.20;;;;;;5108404;28;20019;-59
2021/01/27 08:20:36;;;;;;;9.05;3.67;;;15.10;57.20;;;;;;5090756;28;20032;-62
2021/01/27 08:23:23;;;;;;;9.48;3.20;;;15.10;57.50;;;;;;5091097;28;20036;-60
2021/01/27 08:25:54;;;;;;;8.40;3.50;;;15.10;57.70;;;;;;5091110;28;20091;-59
2021/01/27 08:28:38;;;;;;;7.63;3.35;;;15.00;57.50;;;;;;5107868;28;20065;-60
2021/01/27 08:31:07;;;;;;;6.82;2.97;;;15.00;57.60;;;;;;5091947;28;20043;-59
2021/01/27 08:33:49;;;;;;;7.00;2.60;;;15.00;57.50;;;;;;5083536;28;20024;-59
2021/01/27 08:36:33;;;;;;;7.35;2.80;;;15.00;57.40;;;;;;5071531;28;20028;-59
2021/01/27 08:39:00;;;;;;;6.35;3.00;;;15.00;57.60;;;;;;5077867;28;20054;-60
2021/01/27 08:41:35;;;;;;;5.55;2.60;;;15.10;57.30;;;;;;5091600;28;20031;-62
2021/01/27 08:44:02;;;;;;;5.20;2.47;;;15.00;57.30;;;;;;5090857;28;20032;-59
2021/01/27 08:46:39;;;;;;;8.13;2.78;;;15.00;57.60;;;;;;5079868;28;20028;-65
2021/01/27 08:49:05;;;;;;;5.20;2.55;;;15.00;57.50;;;;;;5091509;28;20024;-61
2021/01/27 08:51:45;;;;;;;6.40;2.40;;;15.00;56.70;;;;;;5092300;28;20381;-60
2021/01/27 08:54:25;;;;;;;6.75;2.40;;;14.90;56.80;;;;;;5092898;28;20150;-60
2021/01/27 08:57:19;;;;;;;10.65;2.70;;;15.00;57.30;;;;;;5091348;28;20043;-60
2021/01/27 08:59:58;;;;;;;8.07;2.50;;;15.00;57.00;;;;;;5092525;28;20031;-61
2021/01/27 09:02:54;;;;;;;8.07;2.65;;;15.00;57.20;;;;;;5091372;28;20060;-61
2021/01/27 09:05:25;;;;;;;6.03;2.30;;;15.20;57.30;;;;;;5097289;28;20028;-59
2021/01/27 09:08:03;;;;;;;8.15;2.50;;;15.20;56.90;;;;;;5091285;28;20032;-61
2021/01/27 09:10:32;;;;;;;6.15;2.58;;;15.20;57.10;;;;;;5091216;28;20020;-59
2021/01/27 09:12:59;;;;;;;5.47;2.55;;;15.20;57.30;;;;;;5090990;28;20431;-60
2021/01/27 09:15:31;;;;;;;5.30;2.20;;;15.20;57.30;;;;;;5092015;28;20100;-59
2021/01/27 09:17:58;;;;;;;8.55;2.35;;;15.20;57.30;;;;;;5092622;28;20020;-63
2021/01/27 09:20:27;;;;;;;7.32;2.17;;;15.30;57.20;;;;;;5090465;28;20036;-61
2021/01/27 09:23:02;;;;;;;4.35;2.20;;;15.40;57.20;;;;;;5087374;28;20408;-61
2021/01/27 09:25:29;;;;;;;6.50;2.47;;;15.40;56.90;;;;;;5088635;28;20020;-60
2021/01/27 09:28:07;;;;;;;6.65;2.30;;;15.40;57.00;;;;;;5085957;28;20038;-61
2021/01/27 09:30:33;;;;;;;9.15;4.80;;;15.30;57.20;;;;;;5089860;28;20112;-59
2021/01/27 09:33:09;;;;;;;7.28;3.33;;;15.40;57.30;;;;;;5091069;28;20016;-62
2021/01/27 09:35:35;;;;;;;5.95;2.60;;;15.30;57.20;;;;;;5091462;28;20045;-60
2021/01/27 09:38:09;;;;;;;5.75;2.15;;;15.30;57.10;;;;;;5076926;28;20021;-62
2021/01/27 09:40:43;;;;;;;6.93;2.40;;;15.30;57.40;;;;;;5075465;28;20051;-60
2021/01/27 09:43:12;;;;;;;7.25;2.60;;;15.30;57.50;;;;;;5071090;28;20317;-60
2021/01/27 09:45:40;;;;;;;5.97;2.65;;;15.30;57.40;;;;;;5070616;28;20025;-62
2021/01/27 09:48:08;;;;;;;5.85;2.30;;;15.20;57.40;;;;;;5090279;28;20485;-62
2021/01/27 09:50:39;;;;;;;5.78;2.22;;;15.30;57.30;;;;;;5089011;28;20032;-62
2021/01/27 09:53:06;;;;;;;5.43;2.33;;;15.30;57.30;;;;;;5089441;28;20077;-63
2021/01/27 09:55:32;;;;;;;5.70;2.40;;;15.30;57.40;;;;;;5091522;28;20036;-61
2021/01/27 09:58:04;;;;;;;8.70;4.55;;;15.20;57.10;;;;;;5090197;28;20052;-61
2021/01/27 10:00:37;;;;;;;30.20;20.23;;;15.20;55.90;;;;;;5086370;28;20398;-63
2021/01/27 10:03:25;;;;;;;11.85;7.88;;;15.20;56.00;;;;;;5089615;28;20456;-59
2021/01/27 10:05:50;;;;;;;8.00;4.18;;;15.20;56.10;;;;;;5070848;28;20133;-60
2021/01/27 10:08:27;;;;;;;7.68;3.40;;;15.20;56.30;;;;;;5076599;28;20053;-60
2021/01/27 10:11:00;;;;;;;6.20;3.00;;;15.20;56.40;;;;;;5087890;28;20031;-62
2021/01/27 10:13:31;;;;;;;15.68;4.30;;;15.30;56.50;;;;;;5087007;28;20036;-63
2021/01/27 10:16:10;;;;;;;18.40;6.18;;;15.40;56.60;;;;;;5089500;28;20025;-60
2021/01/27 10:18:37;;;;;;;16.17;5.78;;;15.50;56.40;;;;;;5085300;28;20031;-59
2021/01/27 10:21:06;;;;;;;17.75;6.40;;;15.60;56.50;;;;;;5089251;28;20023;-62
2021/01/27 10:23:41;;;;;;;19.50;5.57;;;15.80;55.90;;;;;;5088062;28;20031;-61
2021/01/27 10:26:35;;;;;;;14.02;5.65;;;15.80;56.50;;;;;;5088443;28;20028;-61
2021/01/27 10:29:16;;;;;;;17.52;5.75;;;15.70;55.50;;;;;;5087796;28;20111;-60
2021/01/27 10:31:44;;;;;;;22.15;6.60;;;15.70;54.80;;;;;;5079930;28;20020;-65
2021/01/27 10:34:09;;;;;;;22.42;6.43;;;15.60;54.70;;;;;;5086665;28;20082;-60
2021/01/27 10:36:38;;;;;;;17.90;5.72;;;15.60;55.40;;;;;;5087634;28;20051;-60
2021/01/27 10:39:13;;;;;;;20.98;6.68;;;15.60;55.60;;;;;;5102564;28;20050;-62
2021/01/27 10:41:39;;;;;;;18.80;5.68;;;15.50;55.20;;;;;;5069961;28;20024;-61
2021/01/27 10:44:32;;;;;;;21.65;5.93;;;15.60;55.80;;;;;;5084288;28;20051;-62
2021/01/27 10:47:08;;;;;;;15.30;5.15;;;15.60;55.70;;;;;;5085646;28;20030;-60
2021/01/27 10:49:41;;;;;;;12.23;5.07;;;15.70;55.70;;;;;;5070173;28;20020;-61
2021/01/27 10:52:14;;;;;;;15.52;5.05;;;15.70;55.80;;;;;;5083961;28;20024;-63
2021/01/27 10:54:40;;;;;;;16.35;4.80;;;15.70;55.60;;;;;;5084470;28;20047;-61
2021/01/27 10:57:05;;;;;;;14.15;4.60;;;15.70;55.20;;;;;;5080738;28;20059;-59
2021/01/27 10:59:31;;;;;;;16.98;5.72;;;15.70;55.90;;;;;;5083738;28;20024;-61
2021/01/27 11:01:56;;;;;;;27.70;16.95;;;15.50;55.00;;;;;;5109334;28;20080;-60
2021/01/27 11:04:22;;;;;;;26.45;11.07;;;15.60;55.00;;;;;;5088372;28;20039;-62
2021/01/27 11:06:48;;;;;;;31.33;9.15;;;15.70;55.20;;;;;;5068734;28;20099;-64
2021/01/27 11:09:13;;;;;;;20.63;7.82;;;15.70;56.10;;;;;;5080351;28;20028;-60
2021/01/27 11:11:39;;;;;;;24.85;8.40;;;15.60;56.00;;;;;;5068985;28;20057;-61
2021/01/27 11:14:06;;;;;;;22.05;7.15;;;15.60;56.30;;;;;;5085795;28;20026;-64
2021/01/27 11:16:32;;;;;;;19.38;6.18;;;15.60;56.20;;;;;;5088618;28;20081;-62
2021/01/27 11:18:57;;;;;;;24.17;6.40;;;15.60;55.30;;;;;;5087355;28;20024;-63
2021/01/27 11:21:24;;;;;;;20.33;6.55;;;15.60;55.20;;;;;;5087345;28;20039;-59
2021/01/27 11:23:50;;;;;;;19.02;4.93;;;15.60;56.20;;;;;;5077640;28;20553;-61
2021/01/27 11:26:19;;;;;;;21.77;5.65;;;15.80;56.40;;;;;;5079410;28;20122;-62
2021/01/27 11:28:49;;;;;;;13.18;5.25;;;16.00;55.70;;;;;;5077819;28;20109;-61
2021/01/27 11:31:15;;;;;;;12.98;4.72;;;16.00;55.70;;;;;;5086226;28;20409;-61
2021/01/27 11:33:41;;;;;;;15.88;4.50;;;16.00;55.80;;;;;;5080343;28;20517;-61
2021/01/27 11:36:06;;;;;;;15.75;4.50;;;15.90;55.80;;;;;;5074136;28;20050;-61
2021/01/27 11:38:32;;;;;;;16.80;4.78;;;15.90;55.80;;;;;;5080275;28;20048;-63
2021/01/27 11:40:58;;;;;;;12.93;3.70;;;15.90;56.10;;;;;;5069377;28;20031;-63
2021/01/27 11:43:23;;;;;;;16.02;4.10;;;15.90;56.10;;;;;;5071053;28;20050;-60
2021/01/27 11:45:49;;;;;;;16.45;6.10;;;15.90;56.10;;;;;;5073657;28;20028;-61
2021/01/27 11:48:14;;;;;;;11.98;4.63;;;15.90;55.10;;;;;;5070363;28;20025;-62
2021/01/27 11:50:40;;;;;;;13.18;4.07;;;15.90;54.80;;;;;;5083455;28;20067;-62
2021/01/27 11:53:05;;;;;;;10.20;3.90;;;15.90;54.70;;;;;;5089216;28;20051;-59
2021/01/27 11:55:31;;;;;;;8.70;3.30;;;15.90;55.00;;;;;;5072358;28;20554;-62
2021/01/27 11:57:56;;;;;;;9.13;3.58;;;15.80;55.20;;;;;;5080863;28;20036;-63
2021/01/27 12:00:22;;;;;;;10.38;3.35;;;15.90;56.20;;;;;;5092076;28;20028;-60
2021/01/27 12:02:48;;;;;;;9.00;2.92;;;15.90;55.50;;;;;;5093989;28;20493;-61
2021/01/27 12:05:15;;;;;;;10.05;3.30;;;15.90;55.50;;;;;;5093334;28;20047;-60
2021/01/27 12:07:41;;;;;;;9.43;3.10;;;15.90;55.70;;;;;;5087085;28;20039;-63
2021/01/27 12:10:07;;;;;;;9.15;2.97;;;16.00;55.10;;;;;;5093921;28;20385;-65
2021/01/27 12:12:32;;;;;;;9.25;3.15;;;16.00;55.00;;;;;;5095087;28;20054;-63
2021/01/27 12:14:59;;;;;;;6.90;2.70;;;16.00;55.00;;;;;;5104068;28;20055;-60
2021/01/27 12:17:25;;;;;;;8.35;2.53;;;15.90;55.00;;;;;;5093683;28;20480;-63
2021/01/27 12:19:50;;;;;;;6.85;2.42;;;15.90;55.00;;;;;;5107792;28;20059;-62
2021/01/27 12:22:16;;;;;;;6.47;2.30;;;16.00;55.20;;;;;;5113314;28;20023;-61
2021/01/27 12:24:42;;;;;;;7.43;2.40;;;16.00;55.10;;;;;;5095871;28;20161;-60
2021/01/27 12:27:08;;;;;;;8.13;2.58;;;15.90;55.20;;;;;;5080058;28;20059;-61
2021/01/27 12:29:33;;;;;;;7.07;2.10;;;15.90;54.90;;;;;;5071848;28;20025;-59
2021/01/27 12:31:59;;;;;;;9.50;2.42;;;16.00;56.00;;;;;;5073019;28;20028;-61
2021/01/27 12:34:24;;;;;;;7.50;2.17;;;16.00;55.90;;;;;;5082609;28;20026;-59
2021/01/27 12:36:50;;;;;;;8.57;2.05;;;15.90;55.20;;;;;;5093956;28;20488;-60
2021/01/27 12:39:16;;;;;;;5.75;2.20;;;15.90;55.10;;;;;;5080792;28;20017;-61
2021/01/27 12:41:42;;;;;;;7.57;2.33;;;15.90;55.00;;;;;;5073238;28;20115;-60
2021/01/27 12:44:08;;;;;;;7.45;2.08;;;15.90;54.80;;;;;;5081706;28;20477;-60
2021/01/27 12:46:34;;;;;;;8.10;2.60;;;15.90;54.90;;;;;;5092441;28;20035;-61
2021/01/27 12:48:59;;;;;;;8.50;2.08;;;15.90;54.80;;;;;;5081917;28;20052;-60
2021/01/27 12:51:25;;;;;;;6.85;2.30;;;15.90;54.80;;;;;;5078300;28;20633;-61
2021/01/27 12:53:51;;;;;;;6.53;2.40;;;15.90;54.60;;;;;;5091094;28;20032;-60
2021/01/27 12:56:17;;;;;;;6.85;2.30;;;15.90;54.60;;;;;;5091230;28;20026;-59
2021/01/27 12:58:43;;;;;;;5.57;1.80;;;15.80;54.60;;;;;;5096104;28;20232;-59
2021/01/27 13:01:09;;;;;;;9.65;2.95;;;15.80;54.40;;;;;;5096028;28;20066;-61
2021/01/27 13:03:34;;;;;;;6.32;2.13;;;15.90;54.40;;;;;;5109883;28;20069;-61
2021/01/27 13:06:00;;;;;;;7.03;1.73;;;15.80;54.30;;;;;;5095444;28;20485;-60
2021/01/27 13:08:26;;;;;;;5.93;1.90;;;15.80;54.50;;;;;;5078975;28;20028;-59
2021/01/27 13:10:51;;;;;;;6.60;1.73;;;15.80;54.70;;;;;;5071297;28;20039;-60
2021/01/27 13:13:17;;;;;;;6.63;2.00;;;15.80;54.40;;;;;;5090063;28;20036;-62